TimeEDT,TemperatureF,Dew PointF,Humidity,Sea Level PressureIn,VisibilityMPH,Wind Direction,Wind SpeedMPH,Gust SpeedMPH,PrecipitationIn,Events,Conditions,WindDirDegrees,DateUTC
12:54 AM,37.9,37.0,97,30.10,10.0,Calm,Calm,-,N/A,,Clear,0,2013-10-21 04:54:00
1:54 AM,37.0,36.0,96,30.11,10.0,Calm,Calm,-,N/A,,Clear,0,2013-10-21 05:54:00
2:54 AM,39.0,37.0,93,30.12,10.0,Calm,Calm,-,N/A,,Clear,0,2013-10-21 06:54:00
3:54 AM,37.0,36.0,96,30.12,9.0,Calm,Calm,-,N/A,,Clear,0,2013-10-21 07:54:00
4:54 AM,36.0,35.1,97,30.13,10.0,Calm,Calm,-,N/A,,Clear,0,2013-10-21 08:54:00
5:54 AM,36.0,35.1,97,30.14,9.0,Calm,Calm,-,N/A,,Clear,0,2013-10-21 09:54:00
6:54 AM,36.0,35.1,97,30.15,9.0,Calm,Calm,-,N/A,,Clear,0,2013-10-21 10:54:00
7:54 AM,37.9,37.0,97,30.16,10.0,Calm,Calm,-,N/A,,Clear,0,2013-10-21 11:54:00
8:54 AM,48.0,44.1,86,30.17,10.0,Calm,Calm,-,N/A,,Clear,0,2013-10-21 12:54:00
9:54 AM,57.0,48.9,74,30.17,10.0,West,3.5,-,N/A,,Clear,270,2013-10-21 13:54:00
10:54 AM,62.1,43.0,50,30.15,10.0,Variable,3.5,-,N/A,,Clear,0,2013-10-21 14:54:00
11:54 AM,64.0,41.0,43,30.14,10.0,West,8.1,-,N/A,,Clear,260,2013-10-21 15:54:00
12:54 PM,64.9,39.0,39,30.12,10.0,WSW,5.8,-,N/A,,Clear,250,2013-10-21 16:54:00
1:54 PM,64.9,36.0,34,30.11,10.0,Variable,4.6,-,N/A,,Clear,0,2013-10-21 17:54:00
2:54 PM,64.0,36.0,35,30.08,10.0,South,9.2,17.3,N/A,,Clear,180,2013-10-21 18:54:00
3:54 PM,63.0,35.1,35,30.07,10.0,Variable,4.6,-,N/A,,Clear,0,2013-10-21 19:54:00
4:54 PM,61.0,43.0,52,30.05,10.0,SSE,4.6,-,N/A,,Clear,160,2013-10-21 20:54:00
5:54 PM,59.0,45.0,60,30.05,10.0,SSE,4.6,-,N/A,,Clear,150,2013-10-21 21:54:00
6:54 PM,55.0,46.0,72,30.05,10.0,SE,5.8,-,N/A,,Clear,140,2013-10-21 22:54:00
7:54 PM,51.1,46.0,83,30.05,10.0,Calm,Calm,-,N/A,,Clear,0,2013-10-21 23:54:00
8:54 PM,50.0,46.9,89,30.05,10.0,Calm,Calm,-,N/A,,Clear,0,2013-10-22 00:54:00
9:54 PM,48.9,46.0,90,30.04,10.0,Calm,Calm,-,N/A,,Clear,0,2013-10-22 01:54:00
10:54 PM,48.0,46.0,93,30.01,10.0,Calm,Calm,-,N/A,,Clear,0,2013-10-22 02:54:00
11:54 PM,46.9,45.0,93,30.00,10.0,Calm,Calm,-,N/A,,Clear,0,2013-10-22 03:54:00